createdAt,value
2022-11-16T00:02:13.388Z,13.94
2022-11-16T00:04:40.402Z,13.91
2022-11-16T00:07:07.360Z,13.92
2022-11-16T00:09:34.122Z,13.88
2022-11-16T00:12:03.393Z,13.84
2022-11-16T00:14:34.762Z,13.73
2022-11-16T00:17:02.313Z,13.69
2022-11-16T00:19:29.539Z,13.72
2022-11-16T00:21:56.597Z,13.73
2022-11-16T00:24:23.883Z,13.63
2022-11-16T00:26:51.078Z,13.58
2022-11-16T00:29:20.921Z,13.51
2022-11-16T00:31:48.783Z,13.59
2022-11-16T00:34:15.921Z,13.66
2022-11-16T00:36:42.600Z,13.44
2022-11-16T00:39:13.623Z,13.32
2022-11-16T00:41:41.392Z,13.24
2022-11-16T00:44:09.218Z,13.19
2022-11-16T00:46:36.431Z,13.22
2022-11-16T00:49:05.592Z,13.26
2022-11-16T00:51:33.041Z,13.19
2022-11-16T00:54:00.038Z,13.11
2022-11-16T00:56:27.233Z,13.05
2022-11-16T00:58:53.760Z,13.05
2022-11-16T01:01:20.457Z,12.96
2022-11-16T01:03:48.011Z,12.91
2022-11-16T01:06:15.973Z,12.93
2022-11-16T01:08:43.771Z,12.90
2022-11-16T01:11:32.573Z,12.84
2022-11-16T01:14:02.478Z,12.78
2022-11-16T01:16:29.140Z,12.61
2022-11-16T01:18:55.765Z,12.45
2022-11-16T01:21:23.590Z,12.52
2022-11-16T01:23:50.820Z,12.56
2022-11-16T01:26:17.585Z,12.55
2022-11-16T01:28:44.412Z,12.64
2022-11-16T01:31:12.689Z,12.70
2022-11-16T01:33:40.568Z,12.80
2022-11-16T01:36:17.246Z,12.94
2022-11-16T01:38:46.079Z,13.11
2022-11-16T01:41:20.525Z,13.31
2022-11-16T01:44:14.863Z,13.10
2022-11-16T01:46:52.895Z,12.80
2022-11-16T01:49:23.984Z,12.84
2022-11-16T01:51:58.633Z,12.84
2022-11-16T01:54:27.387Z,12.65
2022-11-16T01:57:00.404Z,12.61
2022-11-16T01:59:35.847Z,12.65
2022-11-16T02:02:03.935Z,12.71
2022-11-16T02:04:32.274Z,12.68
2022-11-16T02:07:15.580Z,12.70
2022-11-16T02:10:09.406Z,12.71
2022-11-16T02:12:57.830Z,12.86
2022-11-16T02:15:51.792Z,12.87
2022-11-16T02:18:48.383Z,12.87
2022-11-16T02:21:15.517Z,12.79
2022-11-16T02:23:51.414Z,12.86
2022-11-16T02:26:47.889Z,12.92
2022-11-16T02:29:20.210Z,12.99
2022-11-16T02:32:04.620Z,13.08
2022-11-16T02:34:37.564Z,13.13
2022-11-16T02:37:07.638Z,13.18
2022-11-16T02:39:37.825Z,13.23
2022-11-16T02:42:08.395Z,13.21
2022-11-16T02:44:40.281Z,13.11
2022-11-16T02:47:13.451Z,13.11
2022-11-16T02:49:48.094Z,12.99
2022-11-16T02:52:16.070Z,12.94
2022-11-16T02:54:42.596Z,12.82
2022-11-16T02:57:09.371Z,12.80
2022-11-16T02:59:41.579Z,12.68
2022-11-16T03:02:34.506Z,12.64
2022-11-16T03:05:09.746Z,12.72
2022-11-16T03:07:48.062Z,12.70
2022-11-16T03:10:37.660Z,12.70
2022-11-16T03:13:10.704Z,12.57
2022-11-16T03:15:41.235Z,12.36
2022-11-16T03:18:14.276Z,12.32
2022-11-16T03:20:43.744Z,12.35
2022-11-16T03:23:12.082Z,12.34
2022-11-16T03:25:49.455Z,12.36
2022-11-16T03:28:33.007Z,12.38
2022-11-16T03:31:11.298Z,12.48
2022-11-16T03:33:45.216Z,12.65
2022-11-16T03:36:23.591Z,12.79
2022-11-16T03:38:52.782Z,12.79
2022-11-16T03:41:22.943Z,12.83
2022-11-16T03:43:50.564Z,12.78
2022-11-16T03:46:18.076Z,12.70
2022-11-16T03:48:45.511Z,12.61
2022-11-16T03:51:20.625Z,12.71
2022-11-16T03:53:47.269Z,12.76
2022-11-16T03:56:14.542Z,12.61
2022-11-16T03:58:41.143Z,12.51
2022-11-16T04:01:07.965Z,12.36
2022-11-16T04:03:35.098Z,12.37
2022-11-16T04:06:20.351Z,12.46
2022-11-16T04:09:05.502Z,12.51
2022-11-16T04:11:50.703Z,12.62
2022-11-16T04:14:41.471Z,12.77
2022-11-16T04:17:35.684Z,12.63
2022-11-16T04:20:22.152Z,12.50
2022-11-16T04:23:14.238Z,12.69
2022-11-16T04:25:43.560Z,12.74
2022-11-16T04:28:19.821Z,12.82
2022-11-16T04:31:17.129Z,12.86
2022-11-16T04:34:09.390Z,12.97
2022-11-16T04:36:54.996Z,13.07
2022-11-16T04:39:21.948Z,13.12
2022-11-16T04:42:07.205Z,13.09
2022-11-16T04:44:54.757Z,13.06
2022-11-16T04:47:23.952Z,13.10
2022-11-16T04:49:51.625Z,13.04
2022-11-16T04:52:18.265Z,13.08
2022-11-16T04:54:45.313Z,13.12
2022-11-16T04:57:12.524Z,13.19
2022-11-16T04:59:39.646Z,13.15
2022-11-16T05:02:09.980Z,13.05
2022-11-16T05:04:50.626Z,13.08
2022-11-16T05:07:18.092Z,13.09
2022-11-16T05:09:52.890Z,13.22
2022-11-16T05:12:22.695Z,13.27
2022-11-16T05:14:55.174Z,13.27
2022-11-16T05:17:25.443Z,13.30
2022-11-16T05:20:11.204Z,13.31
2022-11-16T05:22:52.978Z,13.22
2022-11-16T05:25:19.744Z,13.13
2022-11-16T05:27:52.140Z,13.17
2022-11-16T05:30:19.028Z,13.14
2022-11-16T05:32:59.996Z,13.19
2022-11-16T05:35:27.735Z,13.18
2022-11-16T05:37:54.583Z,13.10
2022-11-16T05:40:22.414Z,13.15
2022-11-16T05:42:57.821Z,13.22
2022-11-16T05:45:26.036Z,13.29
2022-11-16T05:47:53.013Z,13.31
2022-11-16T05:50:20.321Z,13.29
2022-11-16T05:52:59.840Z,13.26
2022-11-16T05:55:26.400Z,13.19
2022-11-16T05:57:53.006Z,13.23
2022-11-16T06:00:22.736Z,13.32
2022-11-16T06:02:54.517Z,13.38
2022-11-16T06:05:26.179Z,13.39
2022-11-16T06:07:54.197Z,13.40
2022-11-16T06:10:21.357Z,13.42
2022-11-16T06:12:49.779Z,13.43
2022-11-16T06:15:17.595Z,13.34
2022-11-16T06:17:44.263Z,13.32
2022-11-16T06:20:11.938Z,13.31
2022-11-16T06:22:39.265Z,13.33
2022-11-16T06:25:10.955Z,13.31
2022-11-16T06:27:44.296Z,13.25
2022-11-16T06:30:14.567Z,13.28
2022-11-16T06:32:42.798Z,13.25
2022-11-16T06:35:18.326Z,13.26
2022-11-16T06:37:58.370Z,13.16
2022-11-16T06:40:33.127Z,13.09
2022-11-16T06:43:01.521Z,13.09
2022-11-16T06:45:28.414Z,13.10
2022-11-16T06:47:57.172Z,13.14
2022-11-16T06:50:23.853Z,13.18
2022-11-16T06:52:50.661Z,13.20
2022-11-16T06:55:18.418Z,13.22
2022-11-16T06:58:08.398Z,13.13
2022-11-16T07:00:35.066Z,12.92
2022-11-16T07:03:03.435Z,12.81
2022-11-16T07:05:31.566Z,12.77
2022-11-16T07:08:08.382Z,12.68
2022-11-16T07:10:35.095Z,12.59
2022-11-16T07:13:03.704Z,12.45
2022-11-16T07:15:31.300Z,12.44
2022-11-16T07:18:06.467Z,12.48
2022-11-16T07:20:35.176Z,12.56
2022-11-16T07:23:03.682Z,12.61
2022-11-16T07:25:33.432Z,12.69
2022-11-16T07:28:10.193Z,12.77
2022-11-16T07:31:24.991Z,12.92
2022-11-16T07:37:12.872Z,13.14
2022-11-16T07:39:47.422Z,13.03
2022-11-16T07:42:14.745Z,13.01
2022-11-16T07:44:52.248Z,13.11
2022-11-16T07:47:19.994Z,13.27
2022-11-16T07:49:48.921Z,13.41
2022-11-16T07:52:20.568Z,13.63
2022-11-16T07:55:09.945Z,13.85
2022-11-16T07:57:57.048Z,13.95
2022-11-16T08:00:26.660Z,13.99
2022-11-16T08:03:02.771Z,13.92
2022-11-16T08:05:30.004Z,13.70
2022-11-16T08:07:56.649Z,13.64
2022-11-16T08:10:25.047Z,13.60
2022-11-16T08:12:51.961Z,13.57
2022-11-16T08:15:20.027Z,13.47
2022-11-16T08:17:46.770Z,13.40
2022-11-16T08:20:16.653Z,13.48
2022-11-16T08:22:45.256Z,13.55
2022-11-16T08:25:12.359Z,13.66
2022-11-16T08:27:50.866Z,13.85
2022-11-16T08:30:20.265Z,14.03
2022-11-16T08:32:50.000Z,14.22
2022-11-16T08:35:16.720Z,14.34
2022-11-16T08:37:44.755Z,14.38
2022-11-16T08:40:12.108Z,14.39
2022-11-16T08:42:43.624Z,14.36
2022-11-16T08:45:11.318Z,14.34
2022-11-16T08:47:39.161Z,14.36
2022-11-16T08:50:07.708Z,14.31
2022-11-16T08:52:35.016Z,14.32
2022-11-16T08:55:05.543Z,14.45
2022-11-16T08:57:35.708Z,14.61
2022-11-16T09:00:10.730Z,14.74
2022-11-16T09:02:37.962Z,14.84
2022-11-16T09:05:05.440Z,14.96
2022-11-16T09:07:32.075Z,15.06
2022-11-16T09:09:58.631Z,15.14
2022-11-16T09:12:25.274Z,15.22
2022-11-16T09:14:52.008Z,15.36
2022-11-16T09:17:22.895Z,15.51
2022-11-16T09:19:49.992Z,15.61
2022-11-16T09:22:16.656Z,15.68
2022-11-16T09:24:46.417Z,15.72
2022-11-16T09:27:16.608Z,15.76
2022-11-16T09:29:43.234Z,15.83
2022-11-16T09:32:09.867Z,15.87
2022-11-16T09:34:36.591Z,15.97
2022-11-16T09:37:04.870Z,16.06
2022-11-16T09:39:32.490Z,16.18
2022-11-16T09:42:37.547Z,16.24
2022-11-16T09:45:15.321Z,16.20
2022-11-16T09:47:51.801Z,16.28
2022-11-16T09:50:42.325Z,16.33
2022-11-16T09:54:03.470Z,16.40
2022-11-16T09:56:35.348Z,16.49
2022-11-16T09:59:07.781Z,16.59
2022-11-16T10:01:52.804Z,16.71
2022-11-16T10:04:43.776Z,16.77
2022-11-16T10:07:35.583Z,16.74
2022-11-16T10:10:02.221Z,16.66
2022-11-16T10:12:48.809Z,16.71
2022-11-16T10:16:00.331Z,16.73
2022-11-16T10:18:58.374Z,16.73
2022-11-16T10:21:37.247Z,16.52
2022-11-16T10:24:25.126Z,16.43
2022-11-16T10:27:07.045Z,16.53
2022-11-16T10:29:55.390Z,16.60
2022-11-16T10:32:29.652Z,16.67
2022-11-16T10:35:05.987Z,16.65
2022-11-16T10:37:36.649Z,16.83
2022-11-16T10:40:17.249Z,17.04
2022-11-16T10:42:46.700Z,17.13
2022-11-16T10:45:51.108Z,17.58
2022-11-16T10:48:38.561Z,17.83
2022-11-16T10:51:07.525Z,17.82
2022-11-16T10:53:39.288Z,17.35
2022-11-16T10:56:21.008Z,16.88
2022-11-16T10:59:02.849Z,16.74
2022-11-16T11:01:58.715Z,16.73
2022-11-16T11:04:32.641Z,16.80
2022-11-16T11:07:29.091Z,17.57
2022-11-16T11:09:55.868Z,19.96
2022-11-16T11:12:45.091Z,20.10
2022-11-16T11:15:26.213Z,18.37
2022-11-16T11:18:14.998Z,17.65
2022-11-16T11:20:45.426Z,17.73
2022-11-16T11:23:54.723Z,21.28
2022-11-16T11:26:29.370Z,22.21
2022-11-16T11:29:01.196Z,22.44
2022-11-16T11:31:35.575Z,21.72
2022-11-16T11:34:21.887Z,20.39
2022-11-16T11:37:25.564Z,19.48
2022-11-16T11:40:26.104Z,18.65
2022-11-16T11:43:01.674Z,18.12
2022-11-16T11:45:52.763Z,17.95
2022-11-16T11:49:11.551Z,17.90
2022-11-16T11:51:41.331Z,18.05
2022-11-16T11:54:24.819Z,18.23
2022-11-16T11:56:51.536Z,18.99
2022-11-16T11:59:25.036Z,19.47
2022-11-16T12:02:00.882Z,20.18
2022-11-16T12:04:42.851Z,19.68
2022-11-16T12:07:18.562Z,19.16
2022-11-16T12:10:12.474Z,19.04
2022-11-16T12:13:10.197Z,19.16
2022-11-16T12:16:01.204Z,20.74
2022-11-16T12:18:47.814Z,21.25
2022-11-16T12:21:44.838Z,20.35
2022-11-16T12:24:26.423Z,18.76
2022-11-16T12:27:12.982Z,17.97
2022-11-16T12:29:54.108Z,17.68
2022-11-16T12:32:37.675Z,17.94
2022-11-16T12:35:27.553Z,18.17
2022-11-16T12:38:00.333Z,18.38
2022-11-16T12:40:33.791Z,19.14
2022-11-16T12:43:09.335Z,18.36
2022-11-16T12:45:35.898Z,17.85
2022-11-16T12:48:17.613Z,17.63
2022-11-16T12:50:54.260Z,17.53
2022-11-16T12:53:42.796Z,17.47
2022-11-16T12:56:17.833Z,16.92
2022-11-16T12:59:09.078Z,16.34
2022-11-16T13:01:41.857Z,16.05
2022-11-16T13:04:21.525Z,16.08
2022-11-16T13:06:56.136Z,16.31
2022-11-16T13:09:30.868Z,16.54
2022-11-16T13:12:00.633Z,16.72
2022-11-16T13:14:34.281Z,16.95
2022-11-16T13:17:03.156Z,17.28
2022-11-16T13:19:30.417Z,17.06
2022-11-16T13:22:06.134Z,16.92
2022-11-16T13:24:58.691Z,16.73
2022-11-16T13:27:31.530Z,16.30
2022-11-16T13:30:13.839Z,15.93
2022-11-16T13:32:46.765Z,15.58
2022-11-16T13:35:18.535Z,15.49
2022-11-16T13:37:49.699Z,15.42
2022-11-16T13:40:23.992Z,15.30
2022-11-16T13:42:59.848Z,15.25
2022-11-16T13:45:33.081Z,15.23
2022-11-16T13:48:04.122Z,15.41
2022-11-16T13:50:37.817Z,15.66
2022-11-16T13:55:58.356Z,16.05
2022-11-16T13:58:26.995Z,16.15
2022-11-16T14:01:07.422Z,16.11
2022-11-16T14:03:39.642Z,16.19
2022-11-16T14:06:24.515Z,16.34
2022-11-16T14:08:51.943Z,16.41
2022-11-16T14:11:39.148Z,16.35
2022-11-16T14:14:10.647Z,16.24
2022-11-16T14:16:49.134Z,16.24
2022-11-16T14:19:47.408Z,16.18
2022-11-16T14:22:39.680Z,16.10
2022-11-16T14:25:37.672Z,16.00
2022-11-16T14:28:13.628Z,15.93
2022-11-16T14:31:00.973Z,15.95
2022-11-16T14:33:33.956Z,15.98
2022-11-16T14:36:04.094Z,16.05
2022-11-16T14:38:34.097Z,16.10
2022-11-16T14:41:07.357Z,16.10
2022-11-16T14:43:41.482Z,16.15
2022-11-16T14:46:33.990Z,16.18
2022-11-16T14:49:02.408Z,16.23
2022-11-16T14:51:35.408Z,16.24
2022-11-16T14:54:33.647Z,16.26
2022-11-16T14:57:06.691Z,16.24
2022-11-16T14:59:33.364Z,16.13
2022-11-16T15:02:12.761Z,15.97
2022-11-16T15:04:39.503Z,15.77
2022-11-16T15:07:07.322Z,15.56
2022-11-16T15:09:37.774Z,15.41
2022-11-16T15:12:24.903Z,15.26
2022-11-16T15:14:54.750Z,15.11
2022-11-16T15:17:27.239Z,14.94
2022-11-16T15:19:59.162Z,14.85
2022-11-16T15:22:41.772Z,14.77
2022-11-16T15:25:32.176Z,14.70
2022-11-16T15:28:04.426Z,14.59
2022-11-16T15:30:34.331Z,14.57
2022-11-16T15:33:08.869Z,14.45
2022-11-16T15:35:37.661Z,14.34
2022-11-16T15:38:16.711Z,14.34
2022-11-16T15:41:04.359Z,14.32
2022-11-16T15:43:49.613Z,14.29
2022-11-16T15:46:24.694Z,14.28
2022-11-16T15:48:52.255Z,14.32
2022-11-16T15:51:23.598Z,14.36
2022-11-16T15:53:51.612Z,14.37
2022-11-16T15:56:27.076Z,14.34
2022-11-16T15:58:55.536Z,14.29
2022-11-16T16:01:22.992Z,14.25
2022-11-16T16:04:05.107Z,14.20
2022-11-16T16:06:50.142Z,14.14
2022-11-16T16:09:33.684Z,14.07
2022-11-16T16:12:26.769Z,14.07
2022-11-16T16:15:23.812Z,14.05
2022-11-16T16:17:50.974Z,13.98
2022-11-16T16:20:20.630Z,13.92
2022-11-16T16:22:48.800Z,13.85
2022-11-16T16:25:30.417Z,13.75
2022-11-16T16:27:59.613Z,13.71
2022-11-16T16:30:30.579Z,13.68
2022-11-16T16:32:58.113Z,13.64
2022-11-16T16:35:25.877Z,13.54
2022-11-16T16:37:59.190Z,13.59
2022-11-16T16:40:26.426Z,13.58
2022-11-16T16:42:54.839Z,13.61
2022-11-16T16:45:32.585Z,13.64
2022-11-16T16:47:59.282Z,13.68
2022-11-16T16:50:25.870Z,13.73
2022-11-16T16:52:52.468Z,13.77
2022-11-16T16:55:19.028Z,13.80
2022-11-16T16:57:45.642Z,13.81
2022-11-16T17:00:12.720Z,13.89
2022-11-16T17:02:39.278Z,13.93
2022-11-16T17:05:06.303Z,14.03
2022-11-16T17:07:32.983Z,14.08
2022-11-16T17:09:59.773Z,13.99
2022-11-16T17:12:26.422Z,14.00
2022-11-16T17:14:53.191Z,14.01
2022-11-16T17:17:20.047Z,14.04
2022-11-16T17:19:46.948Z,14.01
2022-11-16T17:22:14.248Z,13.95
2022-11-16T17:24:40.982Z,13.93
2022-11-16T17:27:07.552Z,14.04
2022-11-16T17:29:34.081Z,14.16
2022-11-16T17:32:00.697Z,14.26
2022-11-16T17:34:27.495Z,14.25
2022-11-16T17:36:55.782Z,14.17
2022-11-16T17:39:23.535Z,14.17
2022-11-16T17:41:51.131Z,14.23
2022-11-16T17:44:21.584Z,14.31
2022-11-16T17:46:48.882Z,14.35
2022-11-16T17:49:15.622Z,14.36
2022-11-16T17:51:42.520Z,14.34
2022-11-16T17:54:09.221Z,14.31
2022-11-16T17:56:35.806Z,14.19
2022-11-16T17:59:02.561Z,14.08
2022-11-16T18:01:29.586Z,13.94
2022-11-16T18:03:58.366Z,13.84
2022-11-16T18:06:25.429Z,13.80
2022-11-16T18:08:52.673Z,13.80
2022-11-16T18:11:21.827Z,13.78
2022-11-16T18:14:00.194Z,13.73
2022-11-16T18:16:32.430Z,13.56
2022-11-16T18:19:05.241Z,13.56
2022-11-16T18:21:33.788Z,13.48
2022-11-16T18:24:00.525Z,13.45
2022-11-16T18:26:27.687Z,13.48
2022-11-16T18:28:54.479Z,13.44
2022-11-16T18:31:23.567Z,13.42
2022-11-16T18:33:51.136Z,13.46
2022-11-16T18:36:22.438Z,13.52
2022-11-16T18:38:49.072Z,13.63
2022-11-16T18:41:19.829Z,13.74
2022-11-16T18:43:55.540Z,13.82
2022-11-16T18:46:32.746Z,13.85
2022-11-16T18:49:00.065Z,13.86
2022-11-16T18:51:27.827Z,13.84
2022-11-16T18:53:54.708Z,13.85
2022-11-16T18:56:21.804Z,13.80
2022-11-16T18:58:51.262Z,13.80
2022-11-16T19:01:22.031Z,13.83
2022-11-16T19:03:49.113Z,13.83
2022-11-16T19:06:17.564Z,13.86
2022-11-16T19:08:47.819Z,13.83
2022-11-16T19:11:16.994Z,13.70
2022-11-16T19:13:44.607Z,13.74
2022-11-16T19:16:13.286Z,13.70
2022-11-16T19:18:40.239Z,13.71
2022-11-16T19:21:12.497Z,13.76
2022-11-16T19:23:44.424Z,13.78
2022-11-16T19:26:12.888Z,13.77
2022-11-16T19:28:44.373Z,13.83
2022-11-16T19:31:11.080Z,13.83
2022-11-16T19:33:38.496Z,13.80
2022-11-16T19:36:11.230Z,13.80
2022-11-16T19:38:38.382Z,13.75
2022-11-16T19:41:06.350Z,13.73
2022-11-16T19:43:34.467Z,13.74
2022-11-16T19:46:03.508Z,13.75
2022-11-16T19:48:33.526Z,13.73
2022-11-16T19:51:04.135Z,13.75
2022-11-16T19:53:32.386Z,13.67
2022-11-16T19:55:59.263Z,13.73
2022-11-16T19:58:25.899Z,13.74
2022-11-16T20:00:52.818Z,13.68
2022-11-16T20:03:19.517Z,13.57
2022-11-16T20:05:46.243Z,13.46
2022-11-16T20:08:12.820Z,13.35
2022-11-16T20:10:39.446Z,13.33
2022-11-16T20:13:06.268Z,13.26
2022-11-16T20:15:32.900Z,13.18
2022-11-16T20:17:59.506Z,13.16
2022-11-16T20:20:26.147Z,13.22
2022-11-16T20:22:53.573Z,13.29
2022-11-16T20:25:20.152Z,13.33
2022-11-16T20:27:47.046Z,13.34
2022-11-16T20:30:13.720Z,13.35
2022-11-16T20:32:40.441Z,13.33
2022-11-16T20:35:07.382Z,13.31
2022-11-16T20:37:33.980Z,13.35
2022-11-16T20:40:00.650Z,13.39
2022-11-16T20:42:27.303Z,13.33
2022-11-16T20:44:54.023Z,13.35
2022-11-16T20:47:20.900Z,13.49
2022-11-16T20:49:47.436Z,13.53
2022-11-16T20:52:14.080Z,13.64
2022-11-16T20:54:40.686Z,13.69
2022-11-16T20:57:07.245Z,13.78
2022-11-16T20:59:33.920Z,13.81
2022-11-16T21:02:00.862Z,13.79
2022-11-16T21:04:27.485Z,13.79
2022-11-16T21:06:54.162Z,13.82
2022-11-16T21:09:22.860Z,13.71
2022-11-16T21:12:08.567Z,13.67
2022-11-16T21:14:35.295Z,13.55
2022-11-16T21:17:01.911Z,13.48
2022-11-16T21:19:28.735Z,13.42
2022-11-16T21:21:55.372Z,13.46
2022-11-16T21:24:24.615Z,13.56
2022-11-16T21:26:52.292Z,13.62
2022-11-16T21:29:22.186Z,13.61
2022-11-16T21:31:48.968Z,13.60
2022-11-16T21:34:15.640Z,13.64
2022-11-16T21:36:42.249Z,13.68
2022-11-16T21:39:08.898Z,13.71
2022-11-16T21:41:35.463Z,13.73
2022-11-16T21:44:02.168Z,13.75
2022-11-16T21:46:28.764Z,13.73
2022-11-16T21:48:56.679Z,13.70
2022-11-16T21:51:26.693Z,13.70
2022-11-16T21:53:53.496Z,13.73
2022-11-16T21:56:24.150Z,13.73
2022-11-16T21:58:52.943Z,13.80
2022-11-16T22:01:20.595Z,13.79
2022-11-16T22:03:48.397Z,13.77
2022-11-16T22:06:35.116Z,13.77
2022-11-16T22:09:01.956Z,13.69
2022-11-16T22:11:28.968Z,13.65
2022-11-16T22:13:55.643Z,13.60
2022-11-16T22:16:25.025Z,13.68
2022-11-16T22:18:51.598Z,13.74
2022-11-16T22:21:18.507Z,13.76
2022-11-16T22:23:45.407Z,13.69
2022-11-16T22:26:15.825Z,13.63
2022-11-16T22:28:42.475Z,13.45
2022-11-16T22:31:14.890Z,13.29
2022-11-16T22:33:41.888Z,13.13
2022-11-16T22:36:11.744Z,13.04
2022-11-16T22:38:38.394Z,13.10
2022-11-16T22:41:05.213Z,13.10
2022-11-16T22:43:32.689Z,13.05
2022-11-16T22:46:01.368Z,12.97
2022-11-16T22:48:39.482Z,12.93
2022-11-16T22:51:18.689Z,12.96
2022-11-16T22:53:45.902Z,12.97
2022-11-16T22:56:13.272Z,13.08
2022-11-16T22:58:40.172Z,13.09
2022-11-16T23:01:08.605Z,13.12
2022-11-16T23:03:36.496Z,13.15
2022-11-16T23:06:04.430Z,13.09
2022-11-16T23:08:32.138Z,13.09
2022-11-16T23:11:18.242Z,13.11
2022-11-16T23:14:03.948Z,13.08
2022-11-16T23:16:30.786Z,13.02
2022-11-16T23:18:57.638Z,12.97
2022-11-16T23:21:43.707Z,12.86
2022-11-16T23:24:30.412Z,12.93
2022-11-16T23:27:17.092Z,12.98
2022-11-16T23:29:44.126Z,13.03
2022-11-16T23:32:10.762Z,12.92
2022-11-16T23:34:37.453Z,12.96
2022-11-16T23:37:08.186Z,12.84
2022-11-16T23:39:34.909Z,12.76
2022-11-16T23:42:20.354Z,12.70
2022-11-16T23:44:46.968Z,12.75
2022-11-16T23:47:13.742Z,12.77
2022-11-16T23:49:40.339Z,12.68
2022-11-16T23:52:07.361Z,12.66
2022-11-16T23:54:33.921Z,12.68
2022-11-16T23:57:00.739Z,12.73
2022-11-16T23:59:27.435Z,12.70
